createdAt,value
2019-04-23T00:00:45.498Z,11.90
2019-04-23T00:03:18.743Z,11.90
2019-04-23T00:05:48.132Z,11.80
2019-04-23T00:08:19.697Z,11.80
2019-04-23T00:10:55.197Z,11.70
2019-04-23T00:13:24.679Z,11.70
2019-04-23T00:15:58.747Z,11.60
2019-04-23T00:18:34.831Z,11.60
2019-04-23T00:20:57.813Z,11.60
2019-04-23T00:23:25.498Z,11.60
2019-04-23T00:26:00.350Z,11.60
2019-04-23T00:28:28.286Z,11.60
2019-04-23T00:33:29.312Z,11.50
2019-04-23T00:35:55.037Z,11.50
2019-04-23T00:38:33.673Z,11.50
2019-04-23T00:41:00.671Z,11.40
2019-04-23T00:43:48.617Z,11.40
2019-04-23T00:45:59.327Z,11.40
2019-04-23T00:48:40.963Z,11.40
2019-04-23T00:51:00.134Z,11.40
2019-04-23T00:53:43.858Z,11.40
2019-04-23T00:56:23.610Z,11.40
2019-04-23T00:58:36.079Z,11.40
2019-04-23T01:01:05.373Z,11.30
2019-04-23T01:03:30.788Z,11.30
2019-04-23T01:06:09.018Z,11.30
2019-04-23T01:08:35.592Z,11.30
2019-04-23T01:11:14.808Z,11.30
2019-04-23T01:16:11.655Z,11.20
2019-04-23T01:18:51.354Z,11.20
2019-04-23T01:21:01.087Z,11.20
2019-04-23T01:23:55.481Z,11.20
2019-04-23T01:26:40.445Z,11.20
2019-04-23T01:29:12.823Z,11.20
2019-04-23T01:31:49.327Z,11.20
2019-04-23T01:34:21.645Z,11.20
2019-04-23T01:36:42.957Z,11.10
2019-04-23T01:39:17.813Z,11.10
2019-04-23T01:41:50.713Z,11.10
2019-04-23T01:44:22.484Z,11.10
2019-04-23T01:46:49.461Z,11.00
2019-04-23T01:49:29.469Z,11.00
2019-04-23T01:51:56.727Z,11.00
2019-04-23T01:54:19.729Z,11.00
2019-04-23T01:56:49.399Z,11.00
2019-04-23T01:59:24.709Z,11.00
2019-04-23T02:01:51.603Z,10.90
2019-04-23T02:04:23.651Z,11.00
2019-04-23T02:06:53.730Z,10.90
2019-04-23T02:09:25.535Z,10.90
2019-04-23T02:11:50.709Z,10.90
2019-04-23T02:16:55.164Z,10.90
2019-04-23T02:19:25.426Z,10.90
2019-04-23T02:22:01.266Z,10.90
2019-04-23T02:24:39.606Z,10.90
2019-04-23T02:27:03.180Z,10.90
2019-04-23T02:32:22.113Z,10.80
2019-04-23T02:44:38.682Z,10.70
2019-04-23T02:47:17.116Z,10.70
2019-04-23T02:49:55.004Z,10.70
2019-04-23T02:52:15.699Z,10.70
2019-04-23T02:55:04.342Z,10.60
2019-04-23T02:57:24.759Z,10.70
2019-04-23T03:02:35.035Z,10.70
2019-04-23T03:04:57.591Z,10.60
2019-04-23T03:07:37.213Z,10.60
2019-04-23T03:10:00.437Z,10.50
2019-04-23T03:12:32.117Z,10.50
2019-04-23T03:15:15.073Z,10.50
2019-04-23T03:17:36.504Z,10.40
2019-04-23T03:20:21.187Z,10.40
2019-04-23T03:22:59.024Z,10.40
2019-04-23T03:25:35.869Z,10.40
2019-04-23T03:28:07.099Z,10.30
2019-04-23T03:31:56.955Z,10.30
2019-04-23T03:33:55.508Z,10.20
2019-04-23T03:38:35.663Z,10.10
2019-04-23T03:40:56.793Z,10.10
2019-04-23T03:43:29.632Z,10.10
2019-04-23T03:46:12.074Z,10.10
2019-04-23T03:48:26.231Z,10.10
2019-04-23T03:50:49.403Z,10.10
2019-04-23T03:55:58.707Z,10.10
2019-04-23T03:58:28.313Z,10.00
2019-04-23T04:06:02.958Z,10.00
2019-04-23T04:08:30.578Z,10.00
2019-04-23T04:11:04.300Z,10.00
2019-04-23T04:13:31.591Z,10.00
2019-04-23T04:16:04.937Z,10.00
2019-04-23T04:18:38.931Z,10.00
2019-04-23T04:21:08.523Z,10.10
2019-04-23T04:26:04.991Z,10.20
2019-04-23T04:31:05.588Z,10.20
2019-04-23T04:36:45.049Z,10.20
2019-04-23T04:42:28.545Z,10.10
2019-04-23T05:00:12.879Z,10.20
2019-04-23T05:07:40.245Z,10.30
2019-04-23T05:10:20.872Z,10.30
2019-04-23T05:12:39.159Z,10.40
2019-04-23T05:15:07.264Z,10.50
2019-04-23T05:20:24.063Z,10.60
2019-04-23T05:23:00.375Z,10.70
2019-04-23T05:25:12.644Z,10.70
2019-04-23T05:27:53.658Z,10.70
2019-04-23T05:30:25.135Z,10.80
2019-04-23T05:32:51.884Z,10.90
2019-04-23T05:35:39.813Z,11.00
2019-04-23T05:40:35.561Z,11.10
2019-04-23T05:42:53.223Z,11.20
2019-04-23T05:45:28.823Z,11.40
2019-04-23T05:48:04.703Z,11.50
2019-04-23T05:50:35.701Z,11.60
2019-04-23T05:52:59.795Z,11.60
2019-04-23T05:55:21.747Z,11.60
2019-04-23T05:57:52.468Z,11.70
2019-04-23T06:03:22.874Z,12.00
2019-04-23T06:05:25.026Z,12.20
2019-04-23T06:08:09.410Z,12.30
2019-04-23T06:10:32.403Z,12.40
2019-04-23T06:13:04.894Z,12.40
2019-04-23T06:18:14.528Z,12.70
2019-04-23T06:20:42.566Z,13.00
2019-04-23T06:23:30.183Z,13.10
2019-04-23T06:25:51.068Z,13.30
2019-04-23T06:28:11.256Z,13.30
2019-04-23T06:33:14.506Z,13.80
2019-04-23T06:35:43.806Z,14.10
2019-04-23T06:38:39.142Z,14.20
2019-04-23T06:40:43.586Z,14.20
2019-04-23T06:43:11.603Z,14.40
2019-04-23T06:45:37.555Z,14.60
2019-04-23T06:48:16.642Z,14.90
2019-04-23T06:53:09.044Z,15.10
2019-04-23T06:55:42.059Z,15.30
2019-04-23T06:58:24.074Z,15.40
2019-04-23T07:00:48.862Z,15.70
2019-04-23T07:03:25.054Z,16.00
2019-04-23T07:06:19.155Z,16.20
2019-04-23T07:16:09.572Z,16.80
2019-04-23T07:18:41.597Z,16.70
2019-04-23T07:21:17.898Z,16.70
2019-04-23T07:23:54.706Z,16.80
2019-04-23T07:26:26.184Z,17.00
2019-04-23T07:28:49.817Z,17.10
2019-04-23T07:31:32.493Z,17.50
2019-04-23T07:33:57.563Z,17.50
2019-04-23T07:36:32.688Z,17.60
2019-04-23T07:39:17.536Z,17.70
2019-04-23T07:41:47.841Z,18.00
2019-04-23T07:44:39.838Z,18.00
2019-04-23T07:47:25.183Z,17.60
2019-04-23T07:49:49.330Z,17.60
2019-04-23T07:54:54.355Z,18.30
2019-04-23T07:57:18.777Z,18.60
2019-04-23T07:59:59.201Z,18.70
2019-04-23T08:02:31.302Z,18.70
2019-04-23T08:05:11.626Z,18.50
2019-04-23T08:07:35.215Z,18.30
2019-04-23T08:10:00.263Z,18.30
2019-04-23T08:15:09.091Z,17.80
2019-04-23T08:17:34.680Z,18.40
2019-04-23T08:20:07.381Z,18.70
2019-04-23T08:22:39.271Z,18.90
2019-04-23T08:25:14.283Z,19.20
2019-04-23T08:27:51.526Z,19.10
2019-04-23T08:30:09.755Z,18.90
2019-04-23T08:32:52.206Z,18.90
2019-04-23T08:35:14.146Z,19.00
2019-04-23T08:40:20.196Z,18.90
2019-04-23T08:42:58.107Z,18.80
2019-04-23T08:45:21.762Z,18.60
2019-04-23T08:53:19.991Z,19.10
2019-04-23T08:55:38.853Z,19.40
2019-04-23T08:58:06.228Z,19.50
2019-04-23T09:00:45.543Z,19.30
2019-04-23T09:03:14.640Z,19.70
2019-04-23T09:05:48.314Z,20.00
2019-04-23T09:08:14.996Z,20.10
2019-04-23T09:15:45.061Z,20.90
2019-04-23T09:18:18.951Z,20.80
2019-04-23T09:20:37.523Z,20.90
2019-04-23T09:23:20.847Z,20.60
2019-04-23T09:33:25.880Z,20.70
2019-04-23T09:35:54.019Z,20.70
2019-04-23T09:38:43.254Z,21.10
2019-04-23T09:41:27.345Z,21.70
2019-04-23T09:44:39.415Z,21.50
2019-04-23T09:46:49.627Z,21.90
2019-04-23T09:49:20.520Z,22.00
2019-04-23T09:54:22.155Z,22.10
2019-04-23T09:56:50.819Z,22.50
2019-04-23T10:05:13.823Z,22.90
2019-04-23T10:10:08.331Z,22.30
2019-04-23T10:12:37.702Z,21.80
2019-04-23T10:15:15.906Z,22.00
2019-04-23T10:17:38.054Z,22.50
2019-04-23T10:20:08.709Z,22.20
2019-04-23T10:22:39.208Z,22.30
2019-04-23T10:25:08.860Z,21.90
2019-04-23T10:27:39.209Z,21.90
2019-04-23T10:30:09.975Z,22.00
2019-04-23T10:32:40.027Z,22.30
2019-04-23T10:35:20.484Z,22.40
2019-04-23T10:37:49.091Z,22.50
2019-04-23T10:40:16.947Z,22.30
2019-04-23T10:42:45.649Z,22.30
2019-04-23T10:45:45.416Z,22.50
2019-04-23T10:48:32.654Z,22.90
2019-04-23T10:54:48.545Z,22.90
2019-04-23T11:03:14.023Z,23.70
2019-04-23T11:05:47.581Z,24.30
2019-04-23T11:07:35.336Z,24.30
2019-04-23T11:10:16.800Z,24.30
2019-04-23T11:13:04.156Z,24.50
2019-04-23T11:15:48.038Z,24.70
2019-04-23T11:17:52.460Z,24.40
2019-04-23T11:22:57.192Z,24.60
2019-04-23T11:28:11.038Z,24.90
2019-04-23T11:33:10.163Z,24.70
2019-04-23T11:35:53.052Z,24.60
2019-04-23T11:38:35.182Z,23.80
2019-04-23T11:40:35.350Z,23.50
2019-04-23T11:43:14.787Z,23.50
2019-04-23T11:45:48.514Z,23.30
2019-04-23T11:51:23.885Z,23.80
2019-04-23T11:53:18.506Z,23.60
2019-04-23T11:55:44.824Z,23.60
2019-04-23T12:03:19.398Z,23.60
2019-04-23T12:06:09.545Z,24.00
2019-04-23T12:11:40.983Z,24.10
2019-04-23T12:14:15.449Z,23.90
2019-04-23T12:16:43.428Z,24.00
2019-04-23T12:19:27.988Z,23.80
2019-04-23T12:21:38.071Z,23.80
2019-04-23T12:24:53.626Z,23.60
2019-04-23T12:26:56.370Z,23.50
2019-04-23T12:29:11.307Z,23.50
2019-04-23T12:31:41.012Z,23.20
2019-04-23T12:34:05.085Z,22.80
2019-04-23T12:39:18.933Z,22.50
2019-04-23T12:41:52.742Z,22.30
2019-04-23T12:44:14.849Z,22.20
2019-04-23T12:46:45.898Z,21.90
2019-04-23T12:49:40.674Z,21.80
2019-04-23T12:51:46.885Z,21.60
2019-04-23T12:54:35.352Z,21.60
2019-04-23T12:56:58.966Z,21.50
2019-04-23T12:59:20.303Z,21.50
2019-04-23T13:01:55.913Z,21.50
2019-04-23T13:04:26.175Z,21.50
2019-04-23T13:06:51.353Z,21.50
2019-04-23T13:09:21.971Z,21.50
2019-04-23T13:11:49.979Z,21.40
2019-04-23T13:14:26.487Z,21.20
2019-04-23T13:17:01.937Z,21.20
2019-04-23T13:19:37.390Z,21.20
2019-04-23T13:22:13.977Z,21.30
2019-04-23T13:24:32.838Z,21.40
2019-04-23T13:27:15.638Z,21.30
2019-04-23T13:29:42.901Z,21.30
2019-04-23T13:32:17.351Z,21.00
2019-04-23T13:34:51.128Z,21.00
2019-04-23T13:37:11.305Z,20.90
2019-04-23T13:39:42.231Z,20.80
2019-04-23T13:42:15.955Z,20.80
2019-04-23T13:44:42.704Z,20.70
2019-04-23T13:47:23.910Z,20.60
2019-04-23T13:49:45.270Z,20.70
2019-04-23T13:52:43.296Z,20.70
2019-04-23T13:54:59.627Z,20.80
2019-04-23T13:59:45.044Z,20.80
2019-04-23T14:02:24.920Z,20.80
2019-04-23T14:04:59.741Z,20.80
2019-04-23T14:07:38.787Z,20.80
2019-04-23T14:10:14.080Z,20.80
2019-04-23T14:17:59.982Z,21.00
2019-04-23T14:20:18.990Z,21.10
2019-04-23T14:27:48.811Z,21.00
2019-04-23T14:30:29.993Z,20.90
2019-04-23T14:32:45.741Z,20.70
2019-04-23T14:35:21.930Z,20.80
2019-04-23T14:37:54.184Z,20.70
2019-04-23T14:40:22.308Z,20.60
2019-04-23T14:43:04.425Z,20.60
2019-04-23T14:45:29.566Z,20.60
2019-04-23T14:48:00.759Z,20.60
2019-04-23T14:50:34.862Z,20.70
2019-04-23T14:52:56.950Z,20.70
2019-04-23T14:58:28.287Z,21.00
2019-04-23T15:00:58.832Z,21.10
2019-04-23T15:03:21.077Z,21.00
2019-04-23T15:05:58.066Z,21.10
2019-04-23T15:08:16.866Z,21.30
2019-04-23T15:11:03.715Z,21.30
2019-04-23T15:13:19.799Z,21.30
2019-04-23T15:15:53.166Z,21.20
2019-04-23T15:18:23.166Z,21.30
2019-04-23T15:21:12.428Z,21.30
2019-04-23T15:28:34.021Z,21.30
2019-04-23T15:31:33.347Z,21.20
2019-04-23T15:34:03.732Z,21.10
2019-04-23T15:39:02.425Z,21.20
2019-04-23T15:41:34.560Z,21.10
2019-04-23T15:44:07.341Z,21.10
2019-04-23T15:49:08.282Z,21.00
2019-04-23T15:52:00.337Z,21.00
2019-04-23T15:56:55.281Z,20.80
2019-04-23T15:59:44.151Z,20.80
2019-04-23T16:01:42.585Z,20.80
2019-04-23T16:10:46.097Z,20.70
2019-04-23T16:13:38.894Z,20.70
2019-04-23T16:22:32.095Z,20.60
2019-04-23T16:41:54.165Z,20.30
2019-04-23T16:47:18.587Z,20.10
2019-04-23T16:49:50.378Z,20.10
2019-04-23T16:52:32.736Z,20.10
2019-04-23T16:54:58.625Z,20.10
2019-04-23T16:57:43.511Z,20.10
2019-04-23T17:00:17.998Z,20.10
2019-04-23T17:02:57.326Z,20.00
2019-04-23T17:05:12.417Z,20.00
2019-04-23T17:07:36.519Z,19.80
2019-04-23T17:12:38.687Z,19.70
2019-04-23T17:17:34.103Z,19.60
2019-04-23T17:20:16.655Z,19.60
2019-04-23T17:22:38.680Z,19.50
2019-04-23T17:25:16.045Z,19.50
2019-04-23T17:27:48.887Z,19.50
2019-04-23T17:30:11.998Z,19.40
2019-04-23T17:32:35.787Z,19.30
2019-04-23T17:35:24.713Z,19.20
2019-04-23T17:38:05.038Z,19.10
2019-04-23T17:40:47.239Z,19.00
2019-04-23T17:43:01.470Z,19.00
2019-04-23T17:48:11.495Z,18.80
2019-04-23T17:50:52.506Z,18.80
2019-04-23T18:00:17.967Z,18.40
2019-04-23T18:15:59.936Z,17.90
2019-04-23T18:18:24.544Z,17.70
2019-04-23T18:20:57.942Z,17.70
2019-04-23T18:23:14.895Z,17.60
2019-04-23T18:25:58.072Z,17.40
2019-04-23T18:28:19.933Z,17.40
2019-04-23T18:31:13.055Z,17.20
2019-04-23T18:36:13.444Z,17.20
2019-04-23T18:38:50.155Z,17.10
2019-04-23T18:43:46.381Z,17.00
2019-04-23T18:46:24.697Z,16.90
2019-04-23T18:51:12.468Z,16.60
2019-04-23T18:53:49.870Z,16.50
2019-04-23T18:56:20.733Z,16.50
2019-04-23T19:01:27.893Z,16.50
2019-04-23T19:17:29.114Z,16.00
2019-04-23T19:19:35.027Z,15.90
2019-04-23T19:24:37.789Z,15.80
2019-04-23T19:27:31.623Z,15.70
2019-04-23T19:29:46.235Z,15.60
2019-04-23T19:32:02.944Z,15.50
2019-04-23T19:34:40.789Z,15.50
2019-04-23T19:37:38.537Z,15.40
2019-04-23T19:39:52.109Z,15.40
2019-04-23T19:42:28.125Z,15.30
2019-04-23T19:44:43.865Z,15.30
2019-04-23T19:47:17.205Z,15.30
2019-04-23T19:49:40.597Z,15.30
2019-04-23T19:52:18.966Z,15.30
2019-04-23T19:54:51.814Z,15.20
2019-04-23T19:59:55.915Z,15.00
2019-04-23T20:02:15.155Z,14.90
2019-04-23T20:07:38.649Z,14.80
2019-04-23T20:14:58.125Z,14.60
2019-04-23T20:20:02.934Z,14.50
2019-04-23T20:25:38.733Z,14.40
2019-04-23T20:28:05.708Z,14.40
2019-04-23T20:32:57.574Z,14.30
2019-04-23T20:40:31.223Z,14.30
2019-04-23T20:42:53.336Z,14.30
2019-04-23T20:45:27.982Z,14.20
2019-04-23T20:50:26.202Z,14.20
2019-04-23T20:53:19.445Z,14.10
2019-04-23T20:56:01.471Z,14.00
2019-04-23T20:58:52.089Z,14.00
2019-04-23T21:01:27.641Z,14.00
2019-04-23T21:03:55.175Z,13.90
2019-04-23T21:06:45.914Z,13.80
2019-04-23T21:12:04.801Z,13.80
2019-04-23T21:14:41.318Z,13.80
2019-04-23T21:16:54.933Z,13.70
2019-04-23T21:19:41.764Z,13.70
2019-04-23T21:22:13.428Z,13.60
2019-04-23T21:25:11.791Z,13.60
2019-04-23T21:28:17.197Z,13.60
2019-04-23T21:36:40.163Z,13.50
2019-04-23T21:40:28.558Z,13.40
2019-04-23T21:47:10.006Z,13.30
2019-04-23T21:49:52.821Z,13.30
2019-04-23T21:52:20.524Z,13.20
2019-04-23T21:57:53.252Z,13.10
2019-04-23T22:03:37.429Z,13.00
2019-04-23T22:06:10.151Z,12.90
2019-04-23T22:08:43.591Z,12.90
2019-04-23T22:11:42.634Z,12.90
2019-04-23T22:14:06.913Z,12.80
2019-04-23T22:19:38.183Z,12.80
2019-04-23T22:22:51.172Z,12.80
2019-04-23T22:43:20.310Z,12.10
2019-04-23T22:52:16.431Z,12.10
2019-04-23T22:59:11.683Z,11.90
2019-04-23T23:05:02.085Z,11.70
